Time;durP1;ratioP1;P1;durP2;ratioP2;P2;SDS_P1;SDS_P2;PMS_P1;PMS_P2;Temp;Humidity;BMP_temperature;BMP_pressure;BME280_temperature;BME280_humidity;BME280_pressure;Samples;Min_cycle;Max_cycle;Signal;HPM_P1;HPM_P2
2022/12/19 00:01:47;;;;;;;32.65;11.85;;;2.00;99.90;;;;;;5053203;28;20025;-34
2022/12/19 00:04:18;;;;;;;30.30;11.43;;;2.00;99.90;;;;;;5044514;28;20100;-39
2022/12/19 00:06:44;;;;;;;32.97;11.80;;;2.10;99.90;;;;;;5050355;28;20079;-36
2022/12/19 00:09:11;;;;;;;30.23;11.98;;;2.10;99.90;;;;;;5038335;28;20025;-31
2022/12/19 00:11:37;;;;;;;32.35;11.85;;;2.10;99.90;;;;;;5043945;28;20021;-37
2022/12/19 00:14:03;;;;;;;31.15;11.68;;;2.20;99.90;;;;;;5040910;28;20080;-33
2022/12/19 00:16:29;;;;;;;28.70;11.32;;;2.20;99.90;;;;;;5034061;28;20057;-40
2022/12/19 00:18:57;;;;;;;32.47;12.77;;;2.20;99.90;;;;;;5040864;28;20021;-37
2022/12/19 00:21:29;;;;;;;32.63;11.65;;;2.20;99.90;;;;;;5034032;28;20458;-38
2022/12/19 00:23:55;;;;;;;32.15;12.18;;;2.30;99.90;;;;;;5038124;28;20113;-37
2022/12/19 00:26:23;;;;;;;29.63;11.90;;;2.30;99.90;;;;;;5033753;28;20068;-37
2022/12/19 00:28:54;;;;;;;30.95;12.32;;;2.40;99.90;;;;;;5038389;28;20025;-34
2022/12/19 00:31:21;;;;;;;27.02;11.57;;;2.40;99.90;;;;;;5039143;28;20036;-36
2022/12/19 00:33:47;;;;;;;25.40;11.10;;;2.40;99.90;;;;;;5031345;28;20033;-33
2022/12/19 00:36:16;;;;;;;31.95;13.00;;;2.40;99.90;;;;;;5032565;28;20017;-36
2022/12/19 00:38:42;;;;;;;29.52;11.27;;;2.40;99.90;;;;;;5034080;28;20573;-36
2022/12/19 00:41:31;;;;;;;28.10;11.25;;;2.40;99.90;;;;;;5034759;28;20028;-36
2022/12/19 00:43:59;;;;;;;27.17;12.07;;;2.40;99.90;;;;;;5045074;28;20045;-37
2022/12/19 00:46:26;;;;;;;29.60;11.35;;;2.50;99.90;;;;;;5033207;28;20509;-34
2022/12/19 00:48:51;;;;;;;26.25;11.10;;;2.50;99.90;;;;;;5037142;28;20037;-33
2022/12/19 00:51:20;;;;;;;26.15;10.65;;;2.50;99.90;;;;;;5034528;28;20025;-34
2022/12/19 00:53:46;;;;;;;;;;;2.50;99.90;;;;;;5041637;28;20484;-33
2022/12/19 00:56:18;;;;;;;28.25;11.07;;;2.50;99.90;;;;;;5041106;28;20067;-32
2022/12/19 00:58:43;;;;;;;26.25;10.32;;;2.50;99.90;;;;;;5035255;28;20359;-30
2022/12/19 01:01:15;;;;;;;27.40;11.52;;;2.50;99.90;;;;;;5047307;28;20087;-34
2022/12/19 01:03:41;;;;;;;32.58;11.18;;;2.50;99.90;;;;;;5039790;28;21091;-33
2022/12/19 01:06:09;;;;;;;25.83;11.38;;;2.60;99.90;;;;;;5053144;28;20131;-35
2022/12/19 01:08:35;;;;;;;28.00;11.77;;;2.60;99.90;;;;;;5053024;28;20025;-33
2022/12/19 01:11:01;;;;;;;28.20;12.02;;;2.50;99.90;;;;;;5053219;28;20052;-36
2022/12/19 01:13:28;;;;;;;27.30;11.45;;;2.60;99.90;;;;;;5040929;28;20060;-38
2022/12/19 01:15:54;;;;;;;28.60;11.95;;;2.60;99.90;;;;;;5033801;28;20025;-35
2022/12/19 01:18:21;;;;;;;31.17;12.68;;;2.60;99.90;;;;;;5033246;28;20389;-38
2022/12/19 01:20:49;;;;;;;29.08;12.13;;;2.70;99.90;;;;;;5039698;28;20382;-58
2022/12/19 01:23:15;;;;;;;25.88;11.45;;;2.70;99.90;;;;;;5037066;28;20025;-32
2022/12/19 01:25:42;;;;;;;27.00;11.20;;;2.80;99.90;;;;;;5053078;28;20074;-31
2022/12/19 01:28:13;;;;;;;30.10;11.35;;;2.80;99.90;;;;;;5053068;28;20032;-38
2022/12/19 01:30:39;;;;;;;26.88;11.57;;;2.80;99.90;;;;;;5053375;28;20477;-47
2022/12/19 01:33:05;;;;;;;33.42;11.70;;;2.80;99.90;;;;;;5050024;28;20041;-34
2022/12/19 01:35:31;;;;;;;30.05;12.38;;;2.90;99.90;;;;;;5052960;28;20027;-33
2022/12/19 01:37:56;;;;;;;35.45;12.48;;;2.90;99.90;;;;;;5046455;28;20025;-33
2022/12/19 01:40:23;;;;;;;25.80;11.25;;;2.90;99.90;;;;;;5050499;28;20021;-32
2022/12/19 01:42:49;;;;;;;33.30;12.80;;;3.00;99.90;;;;;;5053142;28;20029;-32
2022/12/19 01:45:14;;;;;;;31.60;11.65;;;3.10;99.90;;;;;;5052512;28;20425;-34
2022/12/19 01:47:54;;;;;;;30.38;11.95;;;3.10;99.90;;;;;;5052820;28;20056;-36
2022/12/19 01:50:46;;;;;;;32.75;12.13;;;3.10;99.90;;;;;;5035058;28;20112;-31
2022/12/19 01:53:13;;;;;;;30.15;11.98;;;3.10;99.90;;;;;;5033475;28;20038;-35
2022/12/19 01:55:39;;;;;;;33.70;12.32;;;3.10;99.90;;;;;;5040035;28;20033;-40
2022/12/19 01:58:07;;;;;;;30.27;10.93;;;3.20;99.90;;;;;;5049456;28;20524;-40
2022/12/19 02:00:33;;;;;;;26.58;12.48;;;3.20;99.90;;;;;;5049460;28;20538;-41
2022/12/19 02:03:14;;;;;;;22.23;10.52;;;3.20;99.90;;;;;;5034869;28;20021;-42
2022/12/19 02:05:41;;;;;;;28.55;11.65;;;3.20;99.90;;;;;;5038544;28;20029;-40
2022/12/19 02:08:07;;;;;;;30.90;11.75;;;3.30;99.90;;;;;;5042718;28;20058;-43
2022/12/19 02:10:33;;;;;;;29.52;11.25;;;3.30;99.90;;;;;;5044372;28;20507;-40
2022/12/19 02:12:58;;;;;;;25.17;10.88;;;3.30;99.90;;;;;;5051903;28;20029;-41
2022/12/19 02:15:28;;;;;;;27.98;11.15;;;3.40;99.90;;;;;;5052542;28;20492;-42
2022/12/19 02:18:25;;;;;;;29.52;11.73;;;3.40;99.90;;;;;;5047712;28;20161;-41
2022/12/19 02:21:06;;;;;;;31.33;11.40;;;3.40;99.90;;;;;;5021866;28;20226;-43
2022/12/19 02:23:47;;;;;;;39.10;11.70;;;3.50;99.90;;;;;;5042749;28;20485;-41
2022/12/19 02:26:34;;;;;;;35.38;10.48;;;3.50;99.90;;;;;;5030681;28;20060;-40
2022/12/19 02:29:19;;;;;;;24.67;9.98;;;3.50;99.90;;;;;;5033716;28;20065;-40
2022/12/19 02:32:15;;;;;;;34.42;9.98;;;3.60;99.90;;;;;;5031449;28;20034;-64
2022/12/19 02:34:59;;;;;;;30.95;10.45;;;3.70;99.90;;;;;;5034775;28;20369;-42
2022/12/19 02:37:31;;;;;;;27.38;10.60;;;3.70;99.90;;;;;;5039772;28;20056;-36
2022/12/19 02:40:13;;;;;;;30.50;10.55;;;3.70;99.90;;;;;;5036230;28;20032;-40
2022/12/19 02:42:42;;;;;;;20.75;9.80;;;3.80;99.90;;;;;;5032867;28;20037;-43
2022/12/19 02:45:11;;;;;;;21.48;9.98;;;3.80;99.90;;;;;;5035629;28;20504;-40
2022/12/19 02:47:38;;;;;;;31.50;10.00;;;3.90;99.90;;;;;;5034044;28;20039;-41
2022/12/19 02:50:04;;;;;;;26.20;10.10;;;3.90;99.90;;;;;;5038735;28;20029;-42
2022/12/19 02:52:30;;;;;;;31.05;9.68;;;4.00;99.90;;;;;;5040638;28;20402;-43
2022/12/19 02:55:08;;;;;;;27.60;10.15;;;4.00;99.90;;;;;;5048781;28;20025;-40
2022/12/19 02:58:08;;;;;;;25.20;8.63;;;4.00;99.90;;;;;;5049653;28;20539;-38
2022/12/19 03:00:42;;;;;;;30.85;10.27;;;4.00;99.90;;;;;;5049686;28;20489;-41
2022/12/19 03:03:22;;;;;;;24.05;11.00;;;4.00;99.90;;;;;;5039346;28;20053;-38
2022/12/19 03:06:12;;;;;;;23.73;9.50;;;4.10;99.90;;;;;;5040868;28;20025;-38
2022/12/19 03:09:01;;;;;;;23.67;9.85;;;4.00;99.90;;;;;;5044087;28;20490;-38
2022/12/19 03:11:34;;;;;;;22.92;10.05;;;4.00;99.90;;;;;;5035577;28;20329;-38
2022/12/19 03:14:04;;;;;;;27.23;9.77;;;4.00;99.90;;;;;;5035438;28;20033;-39
2022/12/19 03:19:16;;;;;;;25.38;9.32;;;4.10;99.90;;;;;;5035304;28;20094;-39
2022/12/19 03:21:47;;;;;;;28.00;9.68;;;4.10;99.90;;;;;;5053024;28;20104;-33
2022/12/19 03:24:14;;;;;;;20.77;9.13;;;4.20;99.90;;;;;;5055389;28;20146;-35
2022/12/19 03:26:43;;;;;;;23.90;8.85;;;4.20;99.90;;;;;;5050438;28;20040;-32
2022/12/19 03:29:28;;;;;;;21.63;8.45;;;4.30;99.90;;;;;;5040647;28;20044;-33
2022/12/19 03:31:55;;;;;;;24.17;9.52;;;4.30;99.90;;;;;;5049547;28;20036;-40
2022/12/19 03:34:27;;;;;;;23.08;8.55;;;4.40;99.90;;;;;;5039746;28;20452;-39
2022/12/19 03:36:58;;;;;;;24.55;8.73;;;4.50;99.90;;;;;;5035001;28;20156;-37
2022/12/19 03:39:25;;;;;;;26.33;8.73;;;4.50;99.90;;;;;;5043120;28;20468;-39
2022/12/19 03:44:50;;;;;;;22.92;7.95;;;4.50;99.90;;;;;;5023745;28;20033;-39
2022/12/19 03:47:26;;;;;;;25.60;8.57;;;4.50;99.90;;;;;;5042892;28;20096;-39
2022/12/19 03:49:52;;;;;;;22.40;7.95;;;4.60;99.90;;;;;;5036177;28;20794;-39
2022/12/19 03:52:52;;;;;;;19.73;6.75;;;4.70;99.90;;;;;;5039780;28;20033;-41
2022/12/19 03:55:24;;;;;;;16.85;8.18;;;4.70;99.90;;;;;;5036162;28;20087;-40
2022/12/19 03:58:10;;;;;;;14.57;7.25;;;4.70;99.90;;;;;;5043735;28;20037;-38
2022/12/19 04:00:42;;;;;;;17.58;7.60;;;4.70;99.90;;;;;;5037168;28;20025;-40
2022/12/19 04:03:10;;;;;;;16.42;7.18;;;4.70;99.90;;;;;;5035569;28;20100;-49
2022/12/19 04:05:36;;;;;;;12.07;5.55;;;4.70;99.90;;;;;;5047403;28;20490;-40
2022/12/19 04:08:06;;;;;;;18.52;7.47;;;4.70;99.90;;;;;;5048662;28;20588;-41
2022/12/19 04:10:38;;;;;;;14.32;6.57;;;4.80;99.90;;;;;;5036611;28;20405;-47
2022/12/19 04:13:10;;;;;;;18.85;7.43;;;4.80;99.90;;;;;;5037405;28;20030;-44
2022/12/19 04:15:59;;;;;;;17.42;7.03;;;4.80;99.90;;;;;;5034150;28;20113;-40
2022/12/19 04:18:26;;;;;;;17.25;7.30;;;4.80;99.90;;;;;;5033306;28;20103;-42
2022/12/19 04:21:00;;;;;;;16.38;6.88;;;4.80;99.90;;;;;;5034208;28;20485;-40
2022/12/19 04:23:36;;;;;;;20.50;7.25;;;4.90;99.90;;;;;;5038560;28;20033;-43
2022/12/19 04:26:04;;;;;;;13.40;7.13;;;4.80;99.90;;;;;;5035684;28;20568;-39
2022/12/19 04:28:39;;;;;;;11.98;6.55;;;4.90;99.90;;;;;;5035341;28;20113;-39
2022/12/19 04:31:06;;;;;;;15.60;6.82;;;4.90;99.90;;;;;;5050952;28;20111;-43
2022/12/19 04:33:32;;;;;;;14.07;6.65;;;4.90;99.90;;;;;;5048219;28;20025;-41
2022/12/19 04:35:58;;;;;;;15.88;6.65;;;5.00;99.90;;;;;;5044670;28;20098;-38
2022/12/19 04:38:24;;;;;;;12.10;6.30;;;5.10;99.90;;;;;;5038846;28;20533;-40
2022/12/19 04:40:50;;;;;;;14.75;6.75;;;5.10;99.90;;;;;;5038150;28;20065;-38
2022/12/19 04:43:16;;;;;;;10.48;6.53;;;5.10;99.90;;;;;;5037558;28;20044;-38
2022/12/19 04:45:41;;;;;;;13.95;6.70;;;5.10;99.90;;;;;;5052899;28;20131;-39
2022/12/19 04:48:07;;;;;;;10.52;6.20;;;5.10;99.90;;;;;;5045041;28;20016;-38
2022/12/19 04:50:33;;;;;;;14.52;6.80;;;5.20;99.90;;;;;;5044377;28;20041;-39
2022/12/19 04:52:59;;;;;;;11.63;6.47;;;5.30;99.90;;;;;;5042185;28;20036;-39
2022/12/19 04:55:25;;;;;;;13.70;6.88;;;5.30;99.90;;;;;;5042743;28;20474;-41
2022/12/19 04:57:51;;;;;;;11.02;5.47;;;5.30;99.90;;;;;;5040400;28;20021;-39
2022/12/19 05:00:16;;;;;;;11.50;6.03;;;5.40;99.90;;;;;;5045474;28;20021;-38
2022/12/19 05:02:43;;;;;;;9.85;5.35;;;5.40;99.90;;;;;;5041738;28;20489;-38
2022/12/19 05:05:09;;;;;;;7.90;5.32;;;5.50;99.90;;;;;;5040706;28;20396;-39
2022/12/19 05:07:34;;;;;;;9.75;5.47;;;5.50;99.90;;;;;;5041960;28;20025;-38
2022/12/19 05:10:00;;;;;;;11.10;5.80;;;5.60;99.90;;;;;;5037174;28;20428;-50
2022/12/19 05:12:28;;;;;;;9.35;5.70;;;5.60;99.90;;;;;;5035859;28;20377;-39
2022/12/19 05:14:53;;;;;;;8.40;5.43;;;5.70;99.90;;;;;;5047267;28;20029;-38
2022/12/19 05:17:19;;;;;;;8.00;4.88;;;5.70;99.90;;;;;;5047441;28;20373;-42
2022/12/19 05:19:44;;;;;;;9.27;5.60;;;5.70;99.90;;;;;;5031396;28;20022;-70
2022/12/19 05:22:10;;;;;;;11.13;5.65;;;5.70;99.90;;;;;;5033648;28;20067;-38
2022/12/19 05:24:36;;;;;;;11.60;5.78;;;5.80;99.90;;;;;;5043360;28;20416;-38
2022/12/19 05:27:01;;;;;;;8.50;4.97;;;5.90;99.90;;;;;;5032904;28;20036;-38
2022/12/19 05:29:27;;;;;;;9.02;5.40;;;5.90;99.90;;;;;;5035905;28;20075;-38
2022/12/19 05:31:52;;;;;;;9.63;5.10;;;5.90;99.90;;;;;;5044590;28;20057;-35
2022/12/19 05:34:18;;;;;;;9.70;4.88;;;6.00;99.90;;;;;;5032920;28;20021;-39
2022/12/19 05:36:43;;;;;;;14.88;6.18;;;6.10;99.90;;;;;;5035420;28;20461;-40
2022/12/19 05:39:10;;;;;;;7.43;5.63;;;6.10;99.90;;;;;;5033584;28;20496;-38
2022/12/19 05:41:36;;;;;;;11.25;6.00;;;6.10;99.90;;;;;;5050831;28;20037;-38
2022/12/19 05:44:01;;;;;;;9.38;5.10;;;6.10;99.90;;;;;;5045274;28;20027;-37
2022/12/19 05:46:27;;;;;;;13.52;6.63;;;6.20;99.90;;;;;;5050840;28;20033;-38
2022/12/19 05:48:53;;;;;;;8.55;5.13;;;6.20;99.90;;;;;;5033534;28;20132;-38
2022/12/19 05:51:18;;;;;;;8.32;5.50;;;6.30;99.90;;;;;;5043500;28;20544;-42
2022/12/19 05:53:44;;;;;;;10.38;6.03;;;6.30;99.90;;;;;;5041098;28;20048;-39
2022/12/19 05:56:11;;;;;;;11.45;6.05;;;6.30;99.90;;;;;;5034266;28;20645;-39
2022/12/19 05:58:37;;;;;;;11.23;6.20;;;6.40;99.90;;;;;;5041489;28;20041;-38
2022/12/19 06:01:10;;;;;;;16.25;8.82;;;6.40;99.90;;;;;;5045094;28;20021;-39
2022/12/19 06:03:35;;;;;;;10.00;5.53;;;6.50;99.90;;;;;;5032333;28;20112;-38
2022/12/19 06:06:03;;;;;;;11.85;5.60;;;6.50;99.90;;;;;;5032495;28;20057;-38
2022/12/19 06:08:29;;;;;;;13.07;5.80;;;6.50;99.90;;;;;;5033582;28;20151;-38
2022/12/19 06:11:00;;;;;;;11.32;5.70;;;6.60;99.90;;;;;;5037815;28;20048;-40
2022/12/19 06:13:27;;;;;;;13.00;5.38;;;6.60;99.90;;;;;;5050268;28;20044;-38
2022/12/19 06:16:01;;;;;;;10.45;5.60;;;6.60;99.90;;;;;;5052237;28;20111;-38
2022/12/19 06:18:26;;;;;;;12.02;6.00;;;6.70;99.90;;;;;;5034220;28;20029;-38
2022/12/19 06:20:59;;;;;;;11.65;5.85;;;6.80;99.90;;;;;;5037200;28;20025;-46
2022/12/19 06:23:25;;;;;;;11.60;5.90;;;6.80;99.90;;;;;;5040540;28;20030;-43
2022/12/19 06:25:51;;;;;;;10.82;5.95;;;6.80;99.90;;;;;;5036665;28;20108;-40
2022/12/19 06:28:17;;;;;;;11.63;6.07;;;6.80;99.90;;;;;;5031312;28;20084;-37
2022/12/19 06:30:43;;;;;;;10.50;6.05;;;6.90;99.90;;;;;;5038881;28;20013;-38
2022/12/19 06:33:08;;;;;;;10.23;5.47;;;7.00;99.90;;;;;;5043778;28;20036;-37
2022/12/19 06:35:34;;;;;;;10.10;5.80;;;7.00;99.90;;;;;;5035613;28;20052;-38
2022/12/19 06:38:00;;;;;;;10.40;6.07;;;7.00;99.90;;;;;;5044614;28;20064;-38
2022/12/19 06:43:09;;;;;;;13.73;6.78;;;7.10;99.90;;;;;;5034959;28;20405;-39
2022/12/19 06:45:35;;;;;;;10.52;5.68;;;7.10;99.90;;;;;;5043659;28;20029;-39
2022/12/19 06:48:01;;;;;;;10.43;6.18;;;7.10;99.90;;;;;;5049414;28;20480;-39
2022/12/19 06:50:26;;;;;;;13.45;6.75;;;7.10;99.90;;;;;;5039081;28;20104;-38
2022/12/19 06:52:52;;;;;;;8.88;6.32;;;7.20;99.90;;;;;;5035365;28;20083;-39
2022/12/19 06:55:17;;;;;;;14.98;7.20;;;7.20;99.90;;;;;;5038532;28;20497;-39
2022/12/19 06:57:45;;;;;;;12.00;6.03;;;7.20;99.90;;;;;;5047637;28;20028;-39
2022/12/19 07:00:12;;;;;;;11.85;7.07;;;7.20;99.90;;;;;;5043761;28;20029;-39
2022/12/19 07:02:39;;;;;;;11.10;6.60;;;7.20;99.90;;;;;;5038115;28;20033;-39
2022/12/19 07:05:06;;;;;;;14.98;7.28;;;7.30;99.90;;;;;;5044526;28;20109;-38
2022/12/19 07:07:32;;;;;;;18.02;8.02;;;7.30;99.90;;;;;;5049444;28;20476;-38
2022/12/19 07:09:58;;;;;;;15.48;7.55;;;7.30;99.90;;;;;;5037547;28;20127;-37
2022/12/19 07:12:23;;;;;;;12.23;6.50;;;7.30;99.90;;;;;;5041807;28;20116;-41
2022/12/19 07:14:49;;;;;;;14.82;8.15;;;7.30;99.90;;;;;;5041631;28;20021;-40
2022/12/19 07:17:15;;;;;;;10.60;6.38;;;7.40;99.90;;;;;;5046634;28;20388;-39
2022/12/19 07:19:41;;;;;;;20.08;7.90;;;7.40;99.90;;;;;;5047569;28;20025;-37
2022/12/19 07:22:08;;;;;;;15.55;6.82;;;7.40;99.90;;;;;;5046905;28;20603;-41
2022/12/19 07:24:35;;;;;;;15.07;6.68;;;7.40;99.90;;;;;;5033855;28;20492;-39
2022/12/19 07:27:01;;;;;;;13.25;7.07;;;7.40;99.90;;;;;;5045801;28;20720;-46
2022/12/19 07:29:27;;;;;;;10.38;6.35;;;7.50;99.90;;;;;;5041120;28;20013;-38
2022/12/19 07:31:53;;;;;;;13.45;6.55;;;7.40;99.90;;;;;;5040347;28;20532;-38
2022/12/19 07:34:18;;;;;;;12.45;6.60;;;7.40;99.90;;;;;;5033877;28;20042;-57
2022/12/19 07:36:44;;;;;;;12.88;6.43;;;7.50;99.90;;;;;;5034736;28;20032;-40
2022/12/19 07:39:10;;;;;;;13.13;6.18;;;7.50;99.90;;;;;;5048962;28;20040;-39
2022/12/19 07:41:37;;;;;;;11.68;6.25;;;7.50;99.90;;;;;;5049489;28;20060;-38
2022/12/19 07:44:03;;;;;;;9.93;5.20;;;7.50;99.90;;;;;;5053176;28;20032;-41
2022/12/19 07:46:29;;;;;;;11.35;5.10;;;7.50;99.90;;;;;;5036907;28;20021;-39
2022/12/19 07:48:57;;;;;;;12.15;5.70;;;7.60;99.90;;;;;;5048630;28;20104;-40
2022/12/19 07:51:23;;;;;;;15.27;7.55;;;7.60;99.90;;;;;;5034120;28;20109;-38
2022/12/19 07:53:48;;;;;;;14.10;5.43;;;7.60;99.90;;;;;;5035706;28;20112;-38
2022/12/19 07:58:58;;;;;;;15.18;6.40;;;7.70;99.90;;;;;;5051443;28;20083;-40
2022/12/19 08:01:24;;;;;;;11.25;5.80;;;7.70;99.90;;;;;;5037794;28;20026;-39
2022/12/19 08:03:50;;;;;;;9.88;5.38;;;7.70;99.90;;;;;;5032816;28;20057;-39
2022/12/19 08:06:15;;;;;;;11.23;5.32;;;7.80;99.90;;;;;;5039225;28;20030;-37
2022/12/19 08:08:41;;;;;;;10.48;5.72;;;7.70;99.90;;;;;;5042061;28;20055;-39
2022/12/19 08:11:18;;;;;;;11.65;5.30;;;7.70;99.90;;;;;;5039675;28;20068;-38
2022/12/19 08:13:45;;;;;;;9.05;5.93;;;7.80;99.90;;;;;;5043841;28;20043;-38
2022/12/19 08:16:10;;;;;;;8.45;5.30;;;7.70;99.90;;;;;;5035781;28;20037;-38
2022/12/19 08:18:36;;;;;;;16.92;6.28;;;7.80;99.90;;;;;;5037367;28;20036;-38
2022/12/19 08:21:02;;;;;;;9.27;5.93;;;7.80;99.90;;;;;;5044287;28;20032;-40
2022/12/19 08:23:28;;;;;;;9.60;5.82;;;7.80;99.90;;;;;;5042571;28;20370;-39
2022/12/19 08:26:05;;;;;;;14.05;6.47;;;7.80;99.90;;;;;;5035031;28;20521;-39
2022/12/19 08:28:31;;;;;;;12.67;5.27;;;7.90;99.90;;;;;;5049818;28;20028;-38
2022/12/19 08:30:59;;;;;;;9.93;5.57;;;7.90;99.90;;;;;;5045600;28;20053;-42
2022/12/19 08:33:25;;;;;;;15.82;5.72;;;7.80;99.90;;;;;;5043070;28;20419;-39
2022/12/19 08:35:50;;;;;;;9.75;6.13;;;7.90;99.90;;;;;;5054186;28;20017;-39
2022/12/19 08:38:16;;;;;;;9.10;5.38;;;7.90;99.90;;;;;;5047532;28;20021;-45
2022/12/19 08:40:41;;;;;;;11.07;5.70;;;7.90;99.90;;;;;;5032660;28;20080;-39
2022/12/19 08:43:07;;;;;;;11.32;5.75;;;7.90;99.90;;;;;;5044985;28;20056;-39
2022/12/19 08:45:33;;;;;;;12.05;5.72;;;7.90;99.90;;;;;;5042273;28;20031;-39
2022/12/19 08:47:58;;;;;;;15.20;5.95;;;8.00;99.90;;;;;;5034007;28;20029;-39
2022/12/19 08:50:25;;;;;;;9.80;6.30;;;8.00;99.90;;;;;;5045826;28;20025;-38
2022/12/19 08:52:50;;;;;;;12.95;5.68;;;7.90;99.90;;;;;;5045710;28;20807;-41
2022/12/19 08:55:16;;;;;;;10.52;5.72;;;7.90;99.90;;;;;;5049175;28;20468;-40
2022/12/19 08:57:41;;;;;;;13.10;5.53;;;7.90;99.90;;;;;;5053522;28;20032;-39
2022/12/19 09:00:08;;;;;;;9.10;5.85;;;8.00;99.90;;;;;;5051519;28;20021;-39
2022/12/19 09:02:33;;;;;;;9.70;5.47;;;8.00;99.90;;;;;;5053874;28;20114;-39
2022/12/19 09:04:59;;;;;;;12.25;5.63;;;8.00;99.90;;;;;;5053239;28;20171;-40
2022/12/19 09:07:24;;;;;;;9.65;5.50;;;8.10;99.90;;;;;;5051769;28;20021;-38
2022/12/19 09:09:50;;;;;;;9.88;5.35;;;8.10;99.90;;;;;;5053300;28;20032;-40
2022/12/19 09:12:16;;;;;;;12.90;5.07;;;8.10;99.90;;;;;;5052208;28;20029;-47
2022/12/19 09:14:43;;;;;;;10.18;5.05;;;8.10;99.90;;;;;;5050141;28;20029;-39
2022/12/19 09:17:08;;;;;;;12.23;4.70;;;8.10;99.90;;;;;;5035064;28;20025;-37
2022/12/19 09:19:34;;;;;;;9.93;4.85;;;8.10;99.90;;;;;;5030994;28;21521;-38
2022/12/19 09:22:00;;;;;;;11.45;5.07;;;8.10;99.90;;;;;;5039183;28;20021;-40
2022/12/19 09:24:25;;;;;;;12.02;5.47;;;8.10;99.90;;;;;;5043133;28;20503;-39
2022/12/19 09:26:51;;;;;;;9.07;4.93;;;8.10;99.90;;;;;;5033127;28;20087;-32
2022/12/19 09:29:16;;;;;;;9.73;5.43;;;8.20;99.90;;;;;;5033646;28;20032;-41
2022/12/19 09:31:42;;;;;;;9.98;5.28;;;8.20;99.90;;;;;;5043740;28;20083;-52
2022/12/19 09:34:08;;;;;;;8.27;4.78;;;8.20;99.90;;;;;;5038219;28;20040;-39
2022/12/19 09:36:33;;;;;;;6.05;4.30;;;8.20;99.90;;;;;;5037400;28;20029;-39
2022/12/19 09:39:18;;;;;;;12.00;5.30;;;8.20;99.90;;;;;;5034139;28;20025;-40
2022/12/19 09:42:10;;;;;;;13.65;5.00;;;8.20;99.90;;;;;;5036555;28;20026;-39
2022/12/19 09:44:39;;;;;;;6.63;4.43;;;8.20;99.90;;;;;;5050598;28;20036;-39
2022/12/19 09:47:13;;;;;;;10.75;4.65;;;8.20;99.90;;;;;;5038166;28;20545;-39
2022/12/19 09:49:44;;;;;;;13.38;5.85;;;8.20;99.90;;;;;;5035188;28;20028;-38
2022/12/19 09:52:32;;;;;;;10.40;5.20;;;8.20;99.90;;;;;;5036445;28;20031;-39
2022/12/19 09:55:04;;;;;;;14.35;5.18;;;8.30;99.90;;;;;;5049369;28;20102;-38
2022/12/19 09:57:40;;;;;;;13.75;5.22;;;8.30;99.90;;;;;;5044270;28;20028;-38
2022/12/19 10:00:18;;;;;;;16.33;4.90;;;8.20;99.90;;;;;;5039915;28;20546;-39
2022/12/19 10:02:53;;;;;;;11.23;5.32;;;8.30;99.90;;;;;;5030488;28;20534;-39
2022/12/19 10:05:43;;;;;;;11.48;5.30;;;8.30;99.90;;;;;;5043384;28;20104;-39
2022/12/19 10:08:20;;;;;;;13.13;5.25;;;8.40;99.90;;;;;;5037145;28;20498;-40
2022/12/19 10:10:55;;;;;;;9.15;4.75;;;8.50;99.90;;;;;;5048857;28;20083;-38
2022/12/19 10:13:58;;;;;;;20.10;8.07;;;8.50;99.90;;;;;;5047385;28;20641;-45
2022/12/19 10:16:50;;;;;;;7.65;4.82;;;8.50;99.90;;;;;;5041856;28;20021;-39
2022/12/19 10:19:55;;;;;;;9.10;5.28;;;8.50;99.90;;;;;;5042536;28;20021;-58
2022/12/19 10:22:50;;;;;;;11.00;5.07;;;8.50;99.90;;;;;;5040832;28;20029;-38
2022/12/19 10:25:39;;;;;;;9.63;5.18;;;8.60;99.90;;;;;;5022353;28;20039;-39
2022/12/19 10:28:17;;;;;;;10.63;5.05;;;8.60;99.90;;;;;;5040159;28;20461;-39
2022/12/19 10:31:01;;;;;;;8.13;5.18;;;8.60;99.90;;;;;;5035233;28;20507;-38
2022/12/19 10:33:57;;;;;;;8.20;5.38;;;8.60;99.90;;;;;;5040489;28;20023;-40
2022/12/19 10:36:24;;;;;;;9.90;4.70;;;8.60;99.90;;;;;;5028926;28;20064;-40
2022/12/19 10:38:58;;;;;;;5.50;3.65;;;8.70;99.90;;;;;;5042003;28;20481;-39
2022/12/19 10:41:27;;;;;;;6.13;3.95;;;8.70;99.90;;;;;;5037514;28;20477;-40
2022/12/19 10:43:57;;;;;;;9.52;4.85;;;8.70;99.90;;;;;;5041833;28;20021;-39
2022/12/19 10:46:23;;;;;;;11.27;5.00;;;8.70;99.90;;;;;;5039291;28;20037;-38
2022/12/19 10:48:51;;;;;;;7.97;4.25;;;8.70;99.90;;;;;;5036072;28;20043;-39
2022/12/19 10:51:23;;;;;;;9.10;4.50;;;8.70;99.90;;;;;;5043240;28;20413;-39
2022/12/19 10:53:57;;;;;;;9.18;4.10;;;8.70;99.90;;;;;;5038979;28;20028;-40
2022/12/19 10:56:29;;;;;;;9.88;5.00;;;8.70;99.90;;;;;;5046671;28;20020;-35
2022/12/19 10:58:57;;;;;;;6.72;4.22;;;8.80;99.90;;;;;;5040971;28;20013;-39
2022/12/19 11:01:24;;;;;;;;;;;8.80;99.90;;;;;;5038616;28;20033;-39
2022/12/19 11:04:13;;;;;;;13.17;5.00;;;8.80;99.90;;;;;;5044467;28;19916;-38
2022/12/19 11:06:50;;;;;;;7.25;4.13;;;8.80;99.90;;;;;;5039187;28;20213;-39
2022/12/19 11:09:22;;;;;;;9.15;4.82;;;8.80;99.90;;;;;;5043820;28;20068;-37
2022/12/19 11:12:00;;;;;;;8.45;4.10;;;8.80;99.90;;;;;;5025317;28;20564;-39
2022/12/19 11:14:28;;;;;;;5.10;4.05;;;8.80;99.90;;;;;;5042102;28;20028;-40
2022/12/19 11:16:54;;;;;;;9.68;5.03;;;8.80;99.90;;;;;;5043234;28;20499;-39
2022/12/19 11:19:25;;;;;;;7.05;4.15;;;8.80;99.90;;;;;;5039242;28;20026;-39
2022/12/19 11:21:51;;;;;;;6.95;4.38;;;8.90;99.90;;;;;;5038454;28;20107;-37
2022/12/19 11:24:24;;;;;;;6.72;4.20;;;8.80;99.90;;;;;;5041026;28;20874;-36
2022/12/19 11:26:52;;;;;;;7.28;4.15;;;8.90;99.90;;;;;;5040566;28;20032;-39
2022/12/19 11:29:24;;;;;;;6.25;3.92;;;8.90;99.90;;;;;;5040957;28;20508;-36
2022/12/19 11:32:00;;;;;;;6.38;4.20;;;9.00;99.90;;;;;;5038144;28;20447;-38
2022/12/19 11:34:29;;;;;;;8.73;4.15;;;9.00;99.90;;;;;;5039665;28;20090;-33
2022/12/19 11:37:21;;;;;;;8.57;3.50;;;9.00;99.90;;;;;;5039564;28;20150;-40
2022/12/19 11:40:19;;;;;;;6.20;4.32;;;9.00;99.90;;;;;;5042501;28;20087;-36
2022/12/19 11:43:11;;;;;;;4.55;3.47;;;8.90;99.90;;;;;;5014630;28;20262;-39
2022/12/19 11:45:47;;;;;;;5.68;3.95;;;9.00;99.90;;;;;;5039013;28;20151;-39
2022/12/19 11:48:25;;;;;;;6.95;4.20;;;9.00;99.90;;;;;;5039532;28;20702;-39
2022/12/19 11:51:05;;;;;;;7.75;4.45;;;9.10;99.90;;;;;;5038350;28;20546;-31
2022/12/19 11:53:49;;;;;;;7.05;4.63;;;9.10;99.90;;;;;;5044128;28;20091;-30
2022/12/19 11:56:20;;;;;;;5.65;4.18;;;9.10;99.90;;;;;;5036396;28;20025;-34
2022/12/19 11:58:50;;;;;;;7.28;4.22;;;9.20;99.90;;;;;;5035602;28;20033;-30
2022/12/19 12:01:40;;;;;;;7.07;4.22;;;9.20;99.90;;;;;;5039068;28;20029;-33
2022/12/19 12:04:43;;;;;;;4.43;3.40;;;9.30;99.90;;;;;;5036239;28;20021;-32
2022/12/19 12:07:09;;;;;;;9.07;3.95;;;9.30;99.90;;;;;;5039629;28;20488;-33
2022/12/19 12:10:01;;;;;;;6.85;3.95;;;9.30;99.90;;;;;;5034608;28;20028;-34
2022/12/19 12:12:44;;;;;;;7.93;4.28;;;9.40;99.90;;;;;;5037141;28;20032;-32
2022/12/19 12:15:44;;;;;;;11.32;6.65;;;9.40;99.90;;;;;;5035845;28;20033;-32
2022/12/19 12:18:28;;;;;;;7.95;3.78;;;9.40;99.90;;;;;;5040356;28;20029;-37
2022/12/19 12:21:14;;;;;;;7.68;4.25;;;9.50;99.90;;;;;;5033876;28;20021;-31
2022/12/19 12:23:57;;;;;;;9.15;3.67;;;9.50;99.90;;;;;;5034487;28;20021;-31
2022/12/19 12:26:28;;;;;;;4.07;3.22;;;9.50;99.90;;;;;;5038935;28;20419;-37
2022/12/19 12:29:31;;;;;;;6.78;3.42;;;9.50;99.90;;;;;;5038740;28;20029;-34
2022/12/19 12:32:06;;;;;;;9.30;3.60;;;9.50;99.90;;;;;;5035308;28;20562;-31
2022/12/19 12:34:58;;;;;;;4.60;3.15;;;9.50;99.90;;;;;;5041911;28;20041;-29
2022/12/19 12:37:42;;;;;;;6.70;3.55;;;9.50;99.90;;;;;;5045500;28;20079;-35
2022/12/19 12:40:37;;;;;;;6.25;3.50;;;9.60;99.90;;;;;;5035744;28;20389;-30
2022/12/19 12:43:57;;;;;;;8.95;4.13;;;9.60;99.90;;;;;;5035029;28;20032;-31
2022/12/19 12:46:27;;;;;;;4.65;3.38;;;9.70;99.90;;;;;;5036135;28;20029;-33
2022/12/19 12:49:02;;;;;;;6.72;4.22;;;9.70;99.90;;;;;;5034212;28;20558;-33
2022/12/19 12:51:31;;;;;;;8.25;3.33;;;9.80;99.90;;;;;;5040188;28;20064;-32
2022/12/19 12:54:16;;;;;;;5.95;3.80;;;9.70;99.90;;;;;;5032580;28;20021;-30
2022/12/19 12:56:45;;;;;;;4.40;3.10;;;9.80;99.90;;;;;;5035061;28;20108;-32
2022/12/19 12:59:23;;;;;;;6.07;3.95;;;9.80;99.90;;;;;;5034667;28;20037;-37
2022/12/19 13:01:53;;;;;;;7.40;3.13;;;9.80;99.90;;;;;;5037374;28;20021;-35
2022/12/19 13:04:26;;;;;;;3.83;3.15;;;9.80;99.90;;;;;;5036044;28;20481;-37
2022/12/19 13:06:51;;;;;;;6.57;3.47;;;9.90;99.90;;;;;;5038806;28;20025;-31
2022/12/19 13:09:23;;;;;;;7.30;3.65;;;9.90;99.90;;;;;;5037543;28;20388;-39
2022/12/19 13:14:37;;;;;;;6.22;2.90;;;9.90;99.90;;;;;;5035519;28;20114;-37
2022/12/19 13:17:18;;;;;;;4.47;2.92;;;9.90;99.90;;;;;;5033683;28;20107;-33
2022/12/19 13:20:16;;;;;;;7.82;3.55;;;9.90;99.90;;;;;;5035910;28;20094;-33
2022/12/19 13:23:02;;;;;;;5.85;3.58;;;9.90;99.90;;;;;;5027683;28;20025;-35
2022/12/19 13:25:33;;;;;;;4.80;2.92;;;9.90;99.90;;;;;;5034661;28;20057;-33